createdAt,value
2023-04-24T00:07:53.673Z,968.8
2023-04-24T00:27:05.980Z,968.7
2023-04-24T00:46:16.494Z,968.6
2023-04-24T01:05:26.424Z,968.4
2023-04-24T01:24:38.046Z,968.4
2023-04-24T01:43:48.752Z,968.3
2023-04-24T02:02:59.409Z,968.2
2023-04-24T02:22:09.910Z,968.7
2023-04-24T02:41:17.644Z,968.6
2023-04-24T03:00:28.920Z,968.9
2023-04-24T03:19:42.023Z,969.1
2023-04-24T03:38:53.276Z,969.3
2023-04-24T03:58:04.865Z,969.5
2023-04-24T04:17:14.299Z,969.5
2023-04-24T04:36:26.424Z,969.6
2023-04-24T04:55:33.579Z,969.7
2023-04-24T05:14:44.403Z,969.7
2023-04-24T05:33:52.695Z,969.8
2023-04-24T05:53:04.516Z,970
2023-04-24T06:12:15.867Z,969.9
2023-04-24T06:31:27.557Z,969.9
2023-04-24T06:50:38.772Z,969.9
2023-04-24T07:09:49.516Z,970
2023-04-24T07:28:59.957Z,970.2
2023-04-24T07:48:11.646Z,970.3
2023-04-24T08:07:21.907Z,970.4
2023-04-24T08:26:32.107Z,970.8
2023-04-24T08:45:41.480Z,971.3
2023-04-24T09:04:51.097Z,971.6
2023-04-24T09:24:00.702Z,971.5
2023-04-24T09:43:12.670Z,971.9
2023-04-24T10:02:26.358Z,972.2
2023-04-24T10:21:38.465Z,972.6
2023-04-24T10:40:52.322Z,972.9
2023-04-24T11:00:08.116Z,973.2
2023-04-24T11:19:22.400Z,973.3
2023-04-24T11:38:30.786Z,973.6
2023-04-24T11:57:42.945Z,973.9
2023-04-24T12:16:54.778Z,974
2023-04-24T12:36:05.459Z,974.1
2023-04-24T12:55:15.085Z,974.3
2023-04-24T13:14:21.115Z,974.4
2023-04-24T13:33:35.140Z,974.3
2023-04-24T13:52:46.438Z,974.4
2023-04-24T14:11:58.603Z,974.5
2023-04-24T14:31:10.775Z,974.5
2023-04-24T14:50:15.930Z,974.8
2023-04-24T15:09:27.618Z,974.8
2023-04-24T15:28:37.485Z,975
2023-04-24T15:47:49.797Z,975.1
2023-04-24T16:07:00.391Z,975.2
2023-04-24T16:26:12.486Z,975.3
2023-04-24T16:45:22.957Z,975.2
2023-04-24T17:04:34.268Z,975.1
2023-04-24T17:23:45.408Z,975.3
2023-04-24T17:42:54.889Z,975.4
2023-04-24T18:02:04.211Z,975.5
2023-04-24T18:21:14.535Z,975.6
2023-04-24T18:40:22.014Z,975.7
2023-04-24T18:59:31.301Z,975.8
2023-04-24T19:18:41.183Z,976.1
2023-04-24T19:37:51.701Z,976.2
2023-04-24T19:57:02.491Z,976.3
2023-04-24T20:16:12.325Z,976.3
2023-04-24T20:35:19.407Z,976.3
2023-04-24T20:54:29.708Z,976.4
2023-04-24T21:13:40.467Z,976.4
2023-04-24T21:32:50.552Z,976.4
2023-04-24T21:51:58.511Z,976.3
2023-04-24T22:11:27.466Z,976.3
2023-04-24T22:30:22.725Z,976.2
2023-04-24T22:49:30.471Z,976.2
2023-04-24T23:08:39.789Z,976.2
2023-04-24T23:27:50.071Z,976.3
2023-04-24T23:47:01.043Z,976.2
